Time;durP1;ratioP1;P1;durP2;ratioP2;P2;SDS_P1;SDS_P2;PMS_P1;PMS_P2;Temp;Humidity;BMP_temperature;BMP_pressure;BME280_temperature;BME280_humidity;BME280_pressure;Samples;Min_cycle;Max_cycle;Signal;HPM_P1;HPM_P2
2020/12/17 00:01:40;;;;;;;39.67;34.83;;;;;;;;;;4994906;28;20263;-85
2020/12/17 00:04:06;;;;;;;42.73;35.60;;;;;;;;;;4994441;28;20205;-85
2020/12/17 00:06:41;;;;;;;41.70;34.67;;;;;;;;;;4993981;28;20182;-85
2020/12/17 00:09:14;;;;;;;36.27;32.30;;;;;;;;;;4993090;28;20672;-85
2020/12/17 00:11:48;;;;;;;40.33;33.53;;;;;;;;;;4993123;28;20182;-85
2020/12/17 00:14:19;;;;;;;34.77;30.83;;;;;;;;;;4992807;28;20225;-85
2020/12/17 00:16:51;;;;;;;34.93;30.77;;;;;;;;;;4993073;28;20619;-85
2020/12/17 00:19:25;;;;;;;37.20;32.33;;;;;;;;;;4992896;28;20634;-85
2020/12/17 00:21:56;;;;;;;36.00;32.10;;;;;;;;;;4993547;28;20174;-85
2020/12/17 00:24:29;;;;;;;36.87;31.87;;;;;;;;;;4994033;28;20253;-85
2020/12/17 00:27:01;;;;;;;35.93;31.67;;;;;;;;;;4994478;28;20200;-85
2020/12/17 00:29:33;;;;;;;35.40;31.43;;;;;;;;;;4994171;28;20312;-85
2020/12/17 00:32:00;;;;;;;40.07;32.63;;;;;;;;;;4992803;28;20257;-85
2020/12/17 00:34:32;;;;;;;40.20;31.80;;;;;;;;;;4992731;28;20749;-85
2020/12/17 00:37:05;;;;;;;36.47;31.50;;;;;;;;;;4994010;28;20174;-84
2020/12/17 00:39:36;;;;;;;35.40;31.60;;;;;;;;;;4994292;28;20198;-86
2020/12/17 00:42:10;;;;;;;39.87;32.97;;;;;;;;;;4992691;28;20184;-86
2020/12/17 00:44:41;;;;;;;36.63;31.53;;;;;;;;;;4992870;28;20221;-86
2020/12/17 00:47:11;;;;;;;34.57;30.70;;;;;;;;;;4994165;28;20170;-86
2020/12/17 00:49:39;;;;;;;37.37;30.70;;;;;;;;;;4992862;28;20546;-86
2020/12/17 00:52:05;;;;;;;34.07;30.30;;;;;;;;;;4992525;28;20181;-86
2020/12/17 00:54:35;;;;;;;38.20;32.23;;;;;;;;;;4993627;28;20190;-86
2020/12/17 00:57:10;;;;;;;34.77;30.97;;;;;;;;;;4992319;28;20553;-86
2020/12/17 00:59:40;;;;;;;36.57;31.73;;;;;;;;;;4992430;28;20193;-86
2020/12/17 01:02:11;;;;;;;38.40;33.03;;;;;;;;;;4992378;28;20265;-85
2020/12/17 01:04:39;;;;;;;36.90;33.00;;;;;;;;;;4992612;28;20198;-85
2020/12/17 01:07:09;;;;;;;36.10;32.27;;;;;;;;;;4993621;28;20685;-85
2020/12/17 01:09:41;;;;;;;40.13;33.10;;;;;;;;;;4992294;28;20178;-85
2020/12/17 01:12:09;;;;;;;39.40;32.47;;;;;;;;;;4992354;28;20182;-85
2020/12/17 01:14:41;;;;;;;41.07;31.50;;;;;;;;;;4993409;28;20330;-85
2020/12/17 01:17:11;;;;;;;36.73;32.93;;;;;;;;;;4994075;28;20186;-85
2020/12/17 01:19:44;;;;;;;35.10;31.43;;;;;;;;;;4996709;28;20289;-85
2020/12/17 01:22:14;;;;;;;38.00;33.90;;;;;;;;;;4997495;28;20653;-85
2020/12/17 01:24:42;;;;;;;38.10;32.33;;;;;;;;;;4997387;28;20197;-85
2020/12/17 01:27:14;;;;;;;38.63;32.40;;;;;;;;;;4997829;28;20170;-85
2020/12/17 01:29:44;;;;;;;42.67;35.20;;;;;;;;;;4997352;28;20184;-85
2020/12/17 01:32:15;;;;;;;35.53;31.70;;;;;;;;;;4997390;28;20538;-85
2020/12/17 01:34:48;;;;;;;36.10;32.30;;;;;;;;;;4995881;28;20578;-85
2020/12/17 01:37:18;;;;;;;38.87;31.17;;;;;;;;;;4995969;28;20182;-85
2020/12/17 01:39:47;;;;;;;38.60;33.33;;;;;;;;;;4995957;28;20189;-85
2020/12/17 01:42:21;;;;;;;37.63;31.70;;;;;;;;;;4995861;28;20565;-86
2020/12/17 01:44:48;;;;;;;37.70;32.27;;;;;;;;;;4997398;28;20174;-86
2020/12/17 01:47:21;;;;;;;37.27;32.47;;;;;;;;;;4995789;28;20204;-86
2020/12/17 01:49:54;;;;;;;36.73;32.77;;;;;;;;;;4995772;28;20178;-86
2020/12/17 01:52:24;;;;;;;39.40;33.00;;;;;;;;;;4995739;28;20182;-86
2020/12/17 01:54:59;;;;;;;35.83;31.70;;;;;;;;;;4997225;28;20178;-86
2020/12/17 01:57:32;;;;;;;34.90;31.10;;;;;;;;;;4995399;28;20181;-85
2020/12/17 02:00:05;;;;;;;37.77;33.63;;;;;;;;;;4997081;28;20162;-85
2020/12/17 02:02:39;;;;;;;37.83;29.93;;;;;;;;;;4995499;28;20174;-86
2020/12/17 02:05:11;;;;;;;38.50;31.70;;;;;;;;;;4997124;28;20197;-85
2020/12/17 02:07:47;;;;;;;37.07;30.60;;;;;;;;;;4995341;28;20212;-85
2020/12/17 02:10:19;;;;;;;35.83;31.40;;;;;;;;;;4996126;28;20531;-85
2020/12/17 02:12:49;;;;;;;34.67;30.97;;;;;;;;;;4995260;28;20237;-85
2020/12/17 02:15:23;;;;;;;34.97;29.57;;;;;;;;;;4995506;28;20178;-86
2020/12/17 02:17:53;;;;;;;34.63;30.67;;;;;;;;;;4995164;28;20202;-86
2020/12/17 02:20:24;;;;;;;32.30;28.83;;;;;;;;;;4995175;28;20176;-86
2020/12/17 02:22:56;;;;;;;31.90;28.07;;;;;;;;;;4995008;28;20190;-85
2020/12/17 02:25:27;;;;;;;31.13;27.77;;;;;;;;;;4996448;28;20212;-85
2020/12/17 02:27:55;;;;;;;32.87;29.13;;;;;;;;;;4996234;28;20193;-85
2020/12/17 02:30:28;;;;;;;34.43;28.90;;;;;;;;;;4995736;28;20253;-85
2020/12/17 02:32:54;;;;;;;34.23;29.40;;;;;;;;;;4994890;28;20206;-85
2020/12/17 02:35:24;;;;;;;33.70;29.83;;;;;;;;;;4996127;28;20178;-85
2020/12/17 02:37:55;;;;;;;33.27;29.30;;;;;;;;;;4996116;28;20225;-85
2020/12/17 02:40:27;;;;;;;33.90;29.00;;;;;;;;;;4994761;28;20173;-85
2020/12/17 02:42:59;;;;;;;39.43;30.07;;;;;;;;;;4994707;28;20252;-85
2020/12/17 02:45:35;;;;;;;31.70;28.13;;;;;;;;;;4996020;28;20205;-85
2020/12/17 02:48:08;;;;;;;34.23;29.07;;;;;;;;;;4996283;28;20166;-85
2020/12/17 02:50:40;;;;;;;34.77;28.83;;;;;;;;;;4994671;28;20209;-85
2020/12/17 02:53:11;;;;;;;31.27;27.87;;;;;;;;;;4994533;28;20202;-85
2020/12/17 02:55:41;;;;;;;32.70;29.10;;;;;;;;;;4995828;28;20178;-85
2020/12/17 02:58:14;;;;;;;38.13;29.90;;;;;;;;;;4994426;28;20213;-86
2020/12/17 03:00:44;;;;;;;33.80;28.33;;;;;;;;;;4995711;28;20198;-86
2020/12/17 03:03:14;;;;;;;32.43;28.33;;;;;;;;;;4994309;28;20229;-86
2020/12/17 03:05:48;;;;;;;31.30;27.90;;;;;;;;;;4994323;28;20170;-86
2020/12/17 03:08:20;;;;;;;32.80;28.77;;;;;;;;;;4995560;28;20674;-85
2020/12/17 03:10:56;;;;;;;32.13;28.67;;;;;;;;;;4995740;28;20174;-85
2020/12/17 03:13:25;;;;;;;34.73;30.53;;;;;;;;;;4995609;28;20439;-86
2020/12/17 03:15:59;;;;;;;34.67;30.23;;;;;;;;;;4995630;28;20178;-85
2020/12/17 03:18:30;;;;;;;37.60;30.83;;;;;;;;;;4995303;28;20682;-85
2020/12/17 03:21:01;;;;;;;33.47;28.73;;;;;;;;;;4993990;28;20183;-85
2020/12/17 03:23:31;;;;;;;34.07;29.67;;;;;;;;;;4993956;28;20285;-85
2020/12/17 03:26:05;;;;;;;34.80;30.60;;;;;;;;;;4993919;28;20177;-85
2020/12/17 03:28:36;;;;;;;34.03;30.20;;;;;;;;;;4994102;28;20650;-85
2020/12/17 03:31:07;;;;;;;36.10;30.80;;;;;;;;;;4993877;28;20182;-85
2020/12/17 03:33:41;;;;;;;35.13;30.53;;;;;;;;;;4993715;28;20202;-85
2020/12/17 03:36:12;;;;;;;32.37;28.73;;;;;;;;;;4993835;28;20169;-86
2020/12/17 03:38:44;;;;;;;35.13;29.23;;;;;;;;;;4994973;28;20257;-85
2020/12/17 03:41:14;;;;;;;35.83;29.83;;;;;;;;;;4992666;28;20170;-85
2020/12/17 03:43:46;;;;;;;37.47;28.50;;;;;;;;;;4993869;28;20202;-85
2020/12/17 03:46:17;;;;;;;31.17;27.87;;;;;;;;;;4994895;28;20556;-85
2020/12/17 03:48:47;;;;;;;36.37;29.70;;;;;;;;;;4993577;28;20178;-86
2020/12/17 03:51:19;;;;;;;37.73;30.90;;;;;;;;;;4993361;28;20182;-85
2020/12/17 03:53:55;;;;;;;33.27;29.23;;;;;;;;;;4994929;28;20268;-85
2020/12/17 03:56:30;;;;;;;31.97;28.17;;;;;;;;;;4993482;28;20186;-85
2020/12/17 03:59:01;;;;;;;33.73;30.13;;;;;;;;;;4993300;28;20197;-85
2020/12/17 04:01:31;;;;;;;34.53;29.63;;;;;;;;;;4993330;28;20171;-85
2020/12/17 04:04:01;;;;;;;36.97;30.50;;;;;;;;;;4993195;28;20190;-85
2020/12/17 04:06:34;;;;;;;35.30;30.00;;;;;;;;;;4994467;28;20174;-85
2020/12/17 04:09:07;;;;;;;41.50;29.77;;;;;;;;;;4993179;28;20716;-85
2020/12/17 04:11:39;;;;;;;32.77;28.60;;;;;;;;;;4994481;28;20654;-85
2020/12/17 04:14:10;;;;;;;36.77;29.27;;;;;;;;;;4994185;28;20292;-85
2020/12/17 04:16:42;;;;;;;37.03;30.67;;;;;;;;;;4992950;28;20182;-85
2020/12/17 04:19:12;;;;;;;36.37;31.23;;;;;;;;;;4994182;28;20198;-85
2020/12/17 04:21:43;;;;;;;38.73;31.97;;;;;;;;;;4994223;28;20173;-85
2020/12/17 04:24:14;;;;;;;35.20;31.10;;;;;;;;;;4994425;28;20589;-86
2020/12/17 04:26:51;;;;;;;35.33;31.33;;;;;;;;;;4992930;28;20181;-85
2020/12/17 04:29:25;;;;;;;36.13;30.57;;;;;;;;;;4994139;28;20184;-85
2020/12/17 04:31:52;;;;;;;35.10;31.07;;;;;;;;;;4994376;28;20185;-85
2020/12/17 04:34:24;;;;;;;37.50;31.43;;;;;;;;;;4992650;28;20756;-85
2020/12/17 04:36:51;;;;;;;37.30;32.37;;;;;;;;;;4992764;28;20186;-85
2020/12/17 04:39:25;;;;;;;35.60;31.13;;;;;;;;;;4993811;28;20284;-85
2020/12/17 04:41:51;;;;;;;36.33;31.17;;;;;;;;;;4993929;28;20177;-85
2020/12/17 04:44:23;;;;;;;36.63;32.50;;;;;;;;;;4992566;28;20293;-85
2020/12/17 04:47:06;;;;;;;38.20;31.70;;;;;;;;;;4993838;28;20166;-85
2020/12/17 04:49:48;;;;;;;37.40;32.77;;;;;;;;;;4992595;28;20181;-86
2020/12/17 04:52:21;;;;;;;35.40;31.07;;;;;;;;;;4993714;28;20166;-85
2020/12/17 04:54:53;;;;;;;35.60;30.97;;;;;;;;;;4992436;28;20177;-85
2020/12/17 04:57:25;;;;;;;37.27;32.60;;;;;;;;;;4993713;28;20666;-85
2020/12/17 04:59:56;;;;;;;36.80;32.70;;;;;;;;;;4993976;28;20722;-85
2020/12/17 05:02:23;;;;;;;35.83;31.23;;;;;;;;;;4993869;28;20180;-85
2020/12/17 05:04:56;;;;;;;36.73;31.80;;;;;;;;;;4993620;28;20174;-85
2020/12/17 05:07:27;;;;;;;35.30;31.73;;;;;;;;;;4992601;28;20201;-85
2020/12/17 05:09:59;;;;;;;36.83;31.77;;;;;;;;;;4993622;28;20198;-85
2020/12/17 05:12:27;;;;;;;35.97;32.17;;;;;;;;;;4992086;28;20181;-85
2020/12/17 05:14:59;;;;;;;38.23;32.60;;;;;;;;;;4993534;28;20666;-85
2020/12/17 05:17:30;;;;;;;38.37;32.97;;;;;;;;;;4993393;28;20685;-85
2020/12/17 05:20:00;;;;;;;38.10;34.07;;;;;;;;;;4992223;28;20197;-86
2020/12/17 05:22:32;;;;;;;38.23;32.43;;;;;;;;;;4992160;28;20189;-85
2020/12/17 05:25:04;;;;;;;38.30;32.60;;;;;;;;;;4992186;28;20232;-85
2020/12/17 05:27:35;;;;;;;34.37;29.80;;;;;;;;;;4992154;28;20272;-85
2020/12/17 05:30:08;;;;;;;38.43;30.87;;;;;;;;;;4992167;28;20561;-85
2020/12/17 05:32:41;;;;;;;36.27;31.63;;;;;;;;;;4992101;28;20178;-85
2020/12/17 05:35:16;;;;;;;34.03;30.20;;;;;;;;;;4993638;28;20182;-85
2020/12/17 05:37:48;;;;;;;36.00;31.80;;;;;;;;;;4993379;28;20174;-85
2020/12/17 05:40:20;;;;;;;35.80;29.70;;;;;;;;;;4993280;28;20183;-85
2020/12/17 05:42:56;;;;;;;36.33;31.67;;;;;;;;;;4992000;28;20202;-85
2020/12/17 05:45:30;;;;;;;36.63;31.73;;;;;;;;;;4992978;28;20177;-85
2020/12/17 05:48:14;;;;;;;37.80;31.33;;;;;;;;;;4992060;28;20180;-85
2020/12/17 05:50:56;;;;;;;34.93;30.70;;;;;;;;;;4993081;28;20186;-85
2020/12/17 05:53:31;;;;;;;37.70;30.63;;;;;;;;;;4991911;28;20209;-86
2020/12/17 05:56:09;;;;;;;39.27;31.13;;;;;;;;;;4993076;28;20256;-85
2020/12/17 05:58:44;;;;;;;38.10;30.10;;;;;;;;;;4993049;28;20209;-85
2020/12/17 06:01:17;;;;;;;35.07;30.57;;;;;;;;;;4993118;28;20178;-85
2020/12/17 06:03:50;;;;;;;35.57;30.40;;;;;;;;;;4993141;28;20194;-85
2020/12/17 06:06:21;;;;;;;36.40;30.50;;;;;;;;;;4997163;28;20253;-85
2020/12/17 06:08:55;;;;;;;35.40;31.17;;;;;;;;;;4996568;28;20599;-85
2020/12/17 06:11:27;;;;;;;35.07;31.37;;;;;;;;;;4996929;28;20586;-85
2020/12/17 06:13:58;;;;;;;32.17;28.83;;;;;;;;;;4996478;28;20209;-85
2020/12/17 06:16:30;;;;;;;37.47;32.53;;;;;;;;;;4995229;28;20186;-85
2020/12/17 06:19:06;;;;;;;37.10;32.50;;;;;;;;;;4996675;28;20210;-85
2020/12/17 06:21:38;;;;;;;35.13;31.40;;;;;;;;;;4995076;28;20684;-85
2020/12/17 06:24:09;;;;;;;38.20;31.63;;;;;;;;;;4996368;28;20281;-85
2020/12/17 06:26:56;;;;;;;36.50;32.50;;;;;;;;;;4994939;28;20178;-85
2020/12/17 06:29:28;;;;;;;37.67;31.73;;;;;;;;;;4995105;28;20186;-85
2020/12/17 06:32:03;;;;;;;42.03;33.83;;;;;;;;;;4995861;28;20190;-85
2020/12/17 06:34:40;;;;;;;36.20;32.10;;;;;;;;;;4994985;28;20206;-85
2020/12/17 06:37:12;;;;;;;36.93;32.77;;;;;;;;;;4996439;28;20181;-85
2020/12/17 06:39:51;;;;;;;38.00;30.57;;;;;;;;;;4996100;28;20281;-85
2020/12/17 06:42:36;;;;;;;34.63;30.47;;;;;;;;;;4994844;28;20178;-85
2020/12/17 06:45:08;;;;;;;37.83;32.30;;;;;;;;;;4996412;28;20170;-85
2020/12/17 06:47:35;;;;;;;35.50;31.20;;;;;;;;;;4996232;28;20253;-85
2020/12/17 06:50:25;;;;;;;35.67;31.43;;;;;;;;;;4995976;28;20170;-85
2020/12/17 06:53:17;;;;;;;33.53;30.00;;;;;;;;;;4995974;28;20269;-85
2020/12/17 06:55:59;;;;;;;32.77;29.60;;;;;;;;;;4994595;28;20178;-85
2020/12/17 06:58:25;;;;;;;35.60;31.90;;;;;;;;;;4996850;28;20237;-85
2020/12/17 07:00:57;;;;;;;35.10;31.33;;;;;;;;;;4994822;28;20561;-85
2020/12/17 07:03:48;;;;;;;35.80;31.60;;;;;;;;;;4994810;28;20201;-85
2020/12/17 07:06:20;;;;;;;32.30;28.80;;;;;;;;;;4996112;28;20576;-85
2020/12/17 07:08:55;;;;;;;35.23;28.57;;;;;;;;;;4994413;28;20189;-85
2020/12/17 07:11:37;;;;;;;38.13;31.23;;;;;;;;;;4995112;28;20174;-85
2020/12/17 07:14:10;;;;;;;34.87;30.93;;;;;;;;;;4995347;28;20222;-85
2020/12/17 07:16:49;;;;;;;34.50;30.27;;;;;;;;;;4993909;28;20186;-85
2020/12/17 07:19:28;;;;;;;33.60;30.03;;;;;;;;;;4994106;28;20284;-85
2020/12/17 07:22:01;;;;;;;34.67;30.83;;;;;;;;;;4995590;28;20162;-85
2020/12/17 07:24:35;;;;;;;42.20;31.07;;;;;;;;;;4994096;28;20222;-85
2020/12/17 07:27:06;;;;;;;34.20;29.10;;;;;;;;;;4994097;28;20177;-85
2020/12/17 07:29:40;;;;;;;33.80;29.33;;;;;;;;;;4994186;28;20185;-85
2020/12/17 07:32:28;;;;;;;35.33;29.60;;;;;;;;;;4993976;28;20572;-85
2020/12/17 07:35:06;;;;;;;31.43;28.10;;;;;;;;;;4993843;28;20569;-85
2020/12/17 07:37:40;;;;;;;31.67;27.50;;;;;;;;;;4993803;28;20182;-85
2020/12/17 07:40:18;;;;;;;34.77;28.63;;;;;;;;;;4995526;28;20162;-85
2020/12/17 07:43:08;;;;;;;28.97;25.83;;;;;;;;;;4994917;28;20206;-85
2020/12/17 07:45:49;;;;;;;35.73;29.00;;;;;;;;;;4993731;28;20265;-85
2020/12/17 07:48:38;;;;;;;31.43;26.93;;;;;;;;;;4993626;28;20189;-85
2020/12/17 07:51:17;;;;;;;32.53;27.63;;;;;;;;;;4993579;28;20236;-85
2020/12/17 07:53:47;;;;;;;31.83;27.63;;;;;;;;;;4994652;28;20206;-85
2020/12/17 07:56:18;;;;;;;33.07;26.93;;;;;;;;;;4994717;28;20228;-85
2020/12/17 07:58:52;;;;;;;33.80;28.10;;;;;;;;;;4994768;28;20194;-85
2020/12/17 08:01:18;;;;;;;37.77;27.53;;;;;;;;;;4993359;28;20178;-85
2020/12/17 08:03:48;;;;;;;31.00;26.50;;;;;;;;;;4993310;28;20201;-85
2020/12/17 08:06:18;;;;;;;31.00;27.40;;;;;;;;;;4993191;28;20178;-85
2020/12/17 08:08:50;;;;;;;31.60;27.73;;;;;;;;;;4994836;28;20188;-85
2020/12/17 08:11:21;;;;;;;33.13;27.43;;;;;;;;;;4993232;28;20526;-85
2020/12/17 08:13:59;;;;;;;32.73;26.57;;;;;;;;;;4992921;28;20213;-85
2020/12/17 08:16:31;;;;;;;30.87;27.17;;;;;;;;;;4993149;28;20182;-85
2020/12/17 08:19:03;;;;;;;29.23;26.17;;;;;;;;;;4993033;28;20206;-85
2020/12/17 08:21:35;;;;;;;30.17;25.90;;;;;;;;;;4994384;28;20635;-85
2020/12/17 08:24:13;;;;;;;30.27;27.00;;;;;;;;;;4992877;28;20243;-85
2020/12/17 08:26:44;;;;;;;32.47;28.30;;;;;;;;;;4994215;28;20185;-85
2020/12/17 08:29:17;;;;;;;31.67;28.03;;;;;;;;;;4994243;28;20178;-84
2020/12/17 08:31:48;;;;;;;28.50;25.50;;;;;;;;;;4994496;28;20173;-84
2020/12/17 08:34:20;;;;;;;29.63;25.63;;;;;;;;;;4994054;28;20194;-84
2020/12/17 08:36:51;;;;;;;31.87;28.27;;;;;;;;;;4994336;28;20185;-84
2020/12/17 08:39:24;;;;;;;31.20;26.50;;;;;;;;;;4992708;28;20212;-84
2020/12/17 08:41:53;;;;;;;30.83;27.30;;;;;;;;;;4992921;28;20173;-84
2020/12/17 08:44:28;;;;;;;32.30;26.47;;;;;;;;;;4994038;28;20204;-84
2020/12/17 08:47:00;;;;;;;29.13;26.17;;;;;;;;;;4994659;28;20193;-84
2020/12/17 08:49:35;;;;;;;28.20;25.20;;;;;;;;;;4994016;28;20705;-84
2020/12/17 08:52:08;;;;;;;32.10;27.60;;;;;;;;;;4993900;28;20649;-84
2020/12/17 08:54:39;;;;;;;31.63;27.23;;;;;;;;;;4994376;28;20196;-84
2020/12/17 08:57:11;;;;;;;31.50;27.47;;;;;;;;;;4994155;28;20198;-84
2020/12/17 08:59:40;;;;;;;29.07;25.87;;;;;;;;;;4994223;28;20194;-84
2020/12/17 09:02:14;;;;;;;33.50;27.40;;;;;;;;;;4994479;28;20261;-84
2020/12/17 09:04:56;;;;;;;30.73;25.70;;;;;;;;;;4993859;28;20255;-84
2020/12/17 09:07:28;;;;;;;28.00;24.60;;;;;;;;;;4993803;28;20674;-84
2020/12/17 09:10:18;;;;;;;29.33;26.37;;;;;;;;;;4992610;28;20673;-84
2020/12/17 09:15:31;;;;;;;28.83;25.77;;;;;;;;;;4994350;23;20321;-84
2020/12/17 09:18:11;;;;;;;29.57;25.60;;;;;;;;;;4993990;28;20674;-86
2020/12/17 09:20:46;;;;;;;30.57;27.30;;;;;;;;;;4992601;28;20231;-84
2020/12/17 09:23:14;;;;;;;28.07;25.10;;;;;;;;;;4992507;28;20280;-86
2020/12/17 09:25:48;;;;;;;27.97;24.87;;;;;;;;;;4992423;28;20232;-84
2020/12/17 09:28:21;;;;;;;30.30;25.13;;;;;;;;;;4992515;28;20174;-86
2020/12/17 09:30:50;;;;;;;28.73;25.63;;;;;;;;;;4993701;28;20201;-86
2020/12/17 09:33:21;;;;;;;28.80;25.80;;;;;;;;;;4993857;28;20198;-86
2020/12/17 09:35:51;;;;;;;28.53;25.67;;;;;;;;;;4993688;28;20189;-85
2020/12/17 09:38:25;;;;;;;27.00;24.20;;;;;;;;;;4994415;28;20208;-85
2020/12/17 09:40:58;;;;;;;27.60;24.77;;;;;;;;;;4996770;28;20186;-85
2020/12/17 09:43:25;;;;;;;28.77;25.03;;;;;;;;;;4996133;28;20194;-86
2020/12/17 09:45:59;;;;;;;27.77;24.90;;;;;;;;;;4996254;28;20186;-86
2020/12/17 09:48:33;;;;;;;27.33;24.60;;;;;;;;;;4996297;28;20268;-86
2020/12/17 09:51:06;;;;;;;29.10;26.07;;;;;;;;;;4996181;28;20190;-85
2020/12/17 09:53:58;;;;;;;30.63;26.23;;;;;;;;;;4997234;28;20281;-85
2020/12/17 09:56:28;;;;;;;25.10;22.60;;;;;;;;;;4995871;28;20186;-86
2020/12/17 09:58:55;;;;;;;30.57;25.97;;;;;;;;;;4997366;28;20201;-86
2020/12/17 10:01:24;;;;;;;32.07;27.43;;;;;;;;;;4996031;28;20261;-86
2020/12/17 10:03:56;;;;;;;30.43;27.10;;;;;;;;;;4995833;28;20201;-85
2020/12/17 10:06:26;;;;;;;30.80;27.40;;;;;;;;;;4995802;28;20189;-87
2020/12/17 10:08:57;;;;;;;34.27;27.97;;;;;;;;;;4996215;28;20602;-86
2020/12/17 10:11:29;;;;;;;30.30;27.00;;;;;;;;;;4997057;28;20174;-86
2020/12/17 10:14:01;;;;;;;29.27;26.17;;;;;;;;;;4996793;28;20221;-86
2020/12/17 10:16:28;;;;;;;29.40;26.23;;;;;;;;;;4997343;28;20182;-86
2020/12/17 10:19:01;;;;;;;28.50;25.60;;;;;;;;;;4997085;28;20208;-86
2020/12/17 10:21:30;;;;;;;24.93;22.23;;;;;;;;;;4997008;28;20177;-86
2020/12/17 10:24:04;;;;;;;24.53;21.97;;;;;;;;;;4996659;28;20229;-86
2020/12/17 10:26:35;;;;;;;30.43;23.10;;;;;;;;;;4996905;28;20641;-86
2020/12/17 10:29:05;;;;;;;26.07;23.37;;;;;;;;;;4997049;28;20573;-86
2020/12/17 10:31:35;;;;;;;25.63;20.43;;;;;;;;;;4995747;28;20200;-85
2020/12/17 10:34:06;;;;;;;20.73;18.80;;;;;;;;;;4995275;28;20548;-86
2020/12/17 10:36:41;;;;;;;19.53;17.43;;;;;;;;;;4996763;28;20193;-86
2020/12/17 10:39:12;;;;;;;22.70;20.30;;;;;;;;;;4995128;28;20209;-86
2020/12/17 10:41:44;;;;;;;18.10;16.53;;;;;;;;;;4995302;28;20178;-86
2020/12/17 10:44:15;;;;;;;20.47;18.47;;;;;;;;;;4996437;28;20197;-86
2020/12/17 10:46:56;;;;;;;19.77;17.67;;;;;;;;;;4996310;28;20182;-86
2020/12/17 10:49:27;;;;;;;23.17;20.83;;;;;;;;;;4995597;28;20561;-86
2020/12/17 10:51:59;;;;;;;22.17;20.07;;;;;;;;;;4994544;28;20182;-86
2020/12/17 10:54:30;;;;;;;21.30;19.20;;;;;;;;;;4996096;28;20241;-86
2020/12/17 10:56:59;;;;;;;22.17;19.97;;;;;;;;;;4996105;28;20193;-86
2020/12/17 10:59:35;;;;;;;21.30;19.23;;;;;;;;;;4995951;28;20610;-86
2020/12/17 11:02:05;;;;;;;28.00;25.17;;;;;;;;;;4995709;28;20182;-86
2020/12/17 11:04:37;;;;;;;25.60;23.17;;;;;;;;;;4994604;28;20198;-85
2020/12/17 11:07:08;;;;;;;25.20;22.50;;;;;;;;;;4994636;28;20194;-85
2020/12/17 11:09:40;;;;;;;24.40;21.93;;;;;;;;;;4994345;28;20182;-85
2020/12/17 11:12:09;;;;;;;24.20;21.93;;;;;;;;;;4994378;28;20189;-85
2020/12/17 11:14:41;;;;;;;24.27;21.77;;;;;;;;;;4994067;28;20222;-85
2020/12/17 11:17:12;;;;;;;21.13;19.03;;;;;;;;;;4995869;28;20162;-85
2020/12/17 11:19:44;;;;;;;21.50;19.57;;;;;;;;;;4994138;28;20256;-86
2020/12/17 11:22:18;;;;;;;16.77;15.50;;;;;;;;;;4994209;28;20532;-86
2020/12/17 11:24:51;;;;;;;19.03;17.33;;;;;;;;;;4994193;28;20229;-85
2020/12/17 11:27:22;;;;;;;19.20;17.50;;;;;;;;;;4995406;28;20182;-86
2020/12/17 11:29:54;;;;;;;21.27;19.13;;;;;;;;;;4995332;28;20189;-85
2020/12/17 11:32:31;;;;;;;22.07;20.13;;;;;;;;;;4994098;28;20186;-85
2020/12/17 11:35:06;;;;;;;23.23;20.93;;;;;;;;;;4994239;28;20206;-85
2020/12/17 11:37:38;;;;;;;18.97;17.40;;;;;;;;;;4995655;28;20158;-85
2020/12/17 11:40:07;;;;;;;23.83;21.53;;;;;;;;;;4995729;28;20646;-86
2020/12/17 11:42:36;;;;;;;16.80;15.60;;;;;;;;;;4995084;28;20597;-86
2020/12/17 11:45:02;;;;;;;22.10;20.20;;;;;;;;;;4995483;28;20229;-86
2020/12/17 11:47:31;;;;;;;21.03;19.13;;;;;;;;;;4994031;28;20184;-86
2020/12/17 11:49:59;;;;;;;22.87;20.90;;;;;;;;;;4994017;28;20222;-86
2020/12/17 11:52:26;;;;;;;21.70;19.80;;;;;;;;;;4995608;28;20370;-86
2020/12/17 11:54:52;;;;;;;24.43;22.33;;;;;;;;;;4993849;28;20285;-86
2020/12/17 11:57:23;;;;;;;24.87;22.60;;;;;;;;;;4993948;28;20178;-86
2020/12/17 11:59:50;;;;;;;22.93;20.90;;;;;;;;;;4994335;28;20305;-86
2020/12/17 12:02:19;;;;;;;23.70;21.63;;;;;;;;;;4993285;28;20197;-86
2020/12/17 12:04:48;;;;;;;23.17;21.20;;;;;;;;;;4995099;28;20564;-86
2020/12/17 12:07:18;;;;;;;21.33;19.50;;;;;;;;;;4993603;28;20181;-86
2020/12/17 12:09:46;;;;;;;20.93;19.23;;;;;;;;;;4995058;28;20625;-86
2020/12/17 12:12:14;;;;;;;18.60;17.30;;;;;;;;;;4994263;28;20185;-86
2020/12/17 12:14:40;;;;;;;20.37;18.87;;;;;;;;;;4993718;28;20225;-87
2020/12/17 12:17:09;;;;;;;20.23;18.63;;;;;;;;;;4993303;28;20279;-87
2020/12/17 12:19:39;;;;;;;19.73;18.23;;;;;;;;;;4994540;28;20206;-87
2020/12/17 12:22:11;;;;;;;21.00;19.43;;;;;;;;;;4993164;28;20189;-87
2020/12/17 12:24:41;;;;;;;19.63;18.23;;;;;;;;;;4993428;28;20276;-87
2020/12/17 12:27:10;;;;;;;19.50;18.20;;;;;;;;;;4994499;28;20245;-86
2020/12/17 12:29:42;;;;;;;19.97;18.67;;;;;;;;;;4992714;28;20197;-87
2020/12/17 12:32:15;;;;;;;19.87;18.53;;;;;;;;;;4995921;28;20205;-91
2020/12/17 12:34:44;;;;;;;21.17;19.67;;;;;;;;;;4996422;28;20240;-92
2020/12/17 12:37:14;;;;;;;21.03;19.57;;;;;;;;;;4997616;28;20192;-92
2020/12/17 12:39:44;;;;;;;21.17;19.67;;;;;;;;;;4996044;28;20229;-92
2020/12/17 12:42:14;;;;;;;21.03;19.37;;;;;;;;;;4996931;28;20186;-93
2020/12/17 12:44:42;;;;;;;21.90;20.40;;;;;;;;;;4996455;28;20205;-92
2020/12/17 12:47:13;;;;;;;22.07;20.57;;;;;;;;;;4996565;28;20185;-92
2020/12/17 12:49:41;;;;;;;23.77;22.17;;;;;;;;;;4997617;28;20185;-92
2020/12/17 12:52:08;;;;;;;21.43;20.03;;;;;;;;;;4994498;28;20658;-92
2020/12/17 12:54:38;;;;;;;23.20;21.53;;;;;;;;;;4993569;28;20206;-92
2020/12/17 12:57:04;;;;;;;22.47;20.77;;;;;;;;;;4993215;28;20178;-91
2020/12/17 12:59:35;;;;;;;23.67;21.77;;;;;;;;;;4993666;28;20202;-92
2020/12/17 13:02:08;;;;;;;23.57;21.77;;;;;;;;;;4993673;28;20182;-92
2020/12/17 13:04:39;;;;;;;22.30;20.80;;;;;;;;;;4994066;28;20193;-92
2020/12/17 13:07:13;;;;;;;22.70;21.20;;;;;;;;;;4994054;28;20561;-92
2020/12/17 13:09:44;;;;;;;23.83;22.20;;;;;;;;;;4993508;28;20251;-92
2020/12/17 13:12:15;;;;;;;22.00;20.50;;;;;;;;;;4994958;28;20273;-92
2020/12/17 13:14:42;;;;;;;22.07;20.57;;;;;;;;;;4997150;28;20218;-92
2020/12/17 13:17:13;;;;;;;22.17;20.67;;;;;;;;;;4998345;28;20657;-92
2020/12/17 13:19:42;;;;;;;21.60;19.90;;;;;;;;;;4997899;28;20202;-92
2020/12/17 13:22:14;;;;;;;20.27;18.97;;;;;;;;;;4998366;28;20232;-92
2020/12/17 13:24:48;;;;;;;19.80;18.30;;;;;;;;;;4997862;28;20701;-92
2020/12/17 13:27:15;;;;;;;18.43;17.13;;;;;;;;;;4998000;28;20259;-92
2020/12/17 13:29:44;;;;;;;19.47;18.10;;;;;;;;;;4998012;28;20182;-92
2020/12/17 13:32:14;;;;;;;19.67;18.27;;;;;;;;;;4997967;28;20186;-92
2020/12/17 13:34:45;;;;;;;19.87;18.27;;;;;;;;;;4997999;28;20206;-92
2020/12/17 13:37:18;;;;;;;18.30;17.13;;;;;;;;;;4997702;28;20178;-92
2020/12/17 13:39:44;;;;;;;16.67;15.57;;;;;;;;;;4997608;28;20275;-92
2020/12/17 13:42:12;;;;;;;16.20;15.20;;;;;;;;;;4997713;28;20178;-92
2020/12/17 13:44:41;;;;;;;16.30;15.20;;;;;;;;;;4998402;28;20244;-92
2020/12/17 13:47:11;;;;;;;16.67;15.57;;;;;;;;;;4997569;28;20186;-92
2020/12/17 13:49:41;;;;;;;16.40;15.40;;;;;;;;;;4998100;28;20178;-93
2020/12/17 13:52:08;;;;;;;17.73;16.63;;;;;;;;;;4997679;28;20189;-92
2020/12/17 13:54:34;;;;;;;17.50;16.17;;;;;;;;;;4998042;28;20300;-92
2020/12/17 13:57:06;;;;;;;17.97;16.87;;;;;;;;;;5002448;28;20201;-92
2020/12/17 13:59:32;;;;;;;16.93;15.73;;;;;;;;;;4999213;28;20205;-92
2020/12/17 14:02:00;;;;;;;17.67;16.57;;;;;;;;;;4999196;28;20174;-91
2020/12/17 14:04:32;;;;;;;17.10;16.00;;;;;;;;;;4998164;28;20337;-91
2020/12/17 14:07:01;;;;;;;17.73;16.63;;;;;;;;;;4997288;28;20186;-91
2020/12/17 14:09:31;;;;;;;18.40;17.23;;;;;;;;;;4997332;28;20182;-91
2020/12/17 14:12:04;;;;;;;18.87;17.57;;;;;;;;;;4997692;28;20186;-90
2020/12/17 14:14:35;;;;;;;18.70;17.60;;;;;;;;;;4996940;28;20578;-91
2020/12/17 14:17:02;;;;;;;17.73;16.50;;;;;;;;;;4996993;28;20182;-91
2020/12/17 14:19:32;;;;;;;18.00;16.90;;;;;;;;;;4998236;28;20579;-91
2020/12/17 14:22:05;;;;;;;17.53;16.43;;;;;;;;;;4999577;28;20181;-91
2020/12/17 14:24:34;;;;;;;19.07;17.73;;;;;;;;;;4996382;28;20198;-91
2020/12/17 14:27:07;;;;;;;18.50;17.37;;;;;;;;;;4995772;28;20201;-91
2020/12/17 14:29:36;;;;;;;18.77;17.57;;;;;;;;;;4996489;28;20180;-91
2020/12/17 14:32:07;;;;;;;20.37;18.77;;;;;;;;;;4997399;28;20236;-91
2020/12/17 14:34:36;;;;;;;20.50;19.20;;;;;;;;;;4999880;28;20250;-92
2020/12/17 14:37:04;;;;;;;19.70;18.50;;;;;;;;;;5003327;28;20186;-91
2020/12/17 14:39:33;;;;;;;21.00;19.70;;;;;;;;;;4997567;28;20210;-91
2020/12/17 14:42:01;;;;;;;20.50;19.20;;;;;;;;;;4999020;28;20228;-91
2020/12/17 14:44:32;;;;;;;21.60;20.10;;;;;;;;;;4997385;28;20205;-92
2020/12/17 14:47:03;;;;;;;21.07;19.57;;;;;;;;;;4996037;28;20225;-91